NEW EXCHEQUER-LK MCCLURE (EXC)

Elevation: 879' · MERCED R basin · Operator: Merced Irrigation District

Provisional data, subject to change.
Query executed Friday at 3:09:56   clock

Select a sensor type for a plot of data.
Note: Reservoir Flows are daily averages.

Earlier

Date RES ELE    STORAGE    RES CHG    TOC STO    ABV TOC    OUTFLOW    INFLOW    PPT INC    TEMP MN    TEMP MX    TEMP AV   
 FEET   AF   AF   AF   AF   CFS   CFS   INCHES   DEG F   DEG F   DEG F  
04/30/2015 618.14 104096 0 849600 -745504 752 766 0.00 -- -- --
05/01/2015 618.35 104390 42 853404 -- 547 695 0.00 -- -- --
05/02/2015 618.92 105188 672 857209 -752021 290 682 0.00 -- -- --
05/03/2015 619.45 105930 434 861013 -755083 271 645 0.00 -- -- --
05/04/2015 619.87 106518 266 864817 -758299 324 620 0.00 -- -- --
05/05/2015 620.62 107630 -- 868622 -760992 33 594 0.00 -- -- --
05/06/2015 621.03 108245 315 872426 -764181 133 443 0.00 -- -- --
05/07/2015 621.54 109010 585 876230 -767220 139 524 0.16 -- -- --
05/08/2015 622.02 109730 510 880035 -770305 180 543 0.00 -- -- --
05/09/2015 622.83 110945 765 883839 -772894 185 797 0.00 -- -- --
05/10/2015 623.61 112115 720 887643 -775528 191 781 0.00 -- -- --
05/11/2015 624.43 113345 570 891448 -778103 155 775 0.00 -- -- --
05/12/2015 625.03 114245 345 895252 -781007 158 612 0.00 -- -- --
05/13/2015 625.15 114425 -210 899056 -784632 368 459 0.00 -- -- --
05/14/2015 625.39 114785 75 902861 -788076 291 473 0.01 -- -- --
05/15/2015 625.86 115490 300 906665 -791175 228 584 0.00 -- -- --
05/16/2015 626.16 115940 60 910470 -794530 233 460 0.00 -- -- --
05/17/2015 626.52 116480 135 914274 -797794 227 499 0.00 -- -- --
05/18/2015 626.88 117020 30 918078 -801058 211 483 0.00 -- -- --
05/19/2015 627.82 118430 975 921883 -803453 304 1015 0.00 -- -- --
05/20/2015 628.00 118700 -75 925687 -806987 299 435 0.00 -- -- --
05/21/2015 628.12 118880 -105 929491 -810611 306 396 0.00 -- -- --
05/22/2015 628.46 119390 105 933296 -813906 304 561 0.00 -- -- --
05/23/2015 629.24 120560 510 937100 -816540 244 834 0.00 -- -- --
05/24/2015 630.13 121908 450 940904 -818996 280 960 0.00 -- -- --
05/25/2015 630.85 123060 256 944709 -821649 297 877 0.00 -- -- --
05/26/2015 631.56 124196 432 948513 -824317 159 732 0.00 -- -- --
05/27/2015 632.37 125492 688 952317 -826825 27 681 0.00 -- -- --
05/28/2015 -- -- -- -- -- -- -- -- -- -- --
05/29/2015 -- -- -- -- -- -- -- -- -- -- --

Later | Latest

Warning! This data is preliminary and subject to revision.

Show EXC Map | Plot EXC Data | 1 Month EXC Data | Real-Time EXC Data | EXC Info